In Rescue
 
Open Full Screen Window  High Contrast Mode
July 25, 2021 9:13 AM EDT
Weather Information
Wind Direction
  ---
Wind Speed
  00 kt (0 mph)
Wind Gust
  00 kt (0 mph)
Altimeter
29.93 in
Visibility
10 SM
Temperature
23° C
73° F
Dewpoint
19° C
66° F
Humidity
78%
Sky Condition
Clear
VFR

METAR KFFX 251313Z AUTO 00000KT 10SM CLR 23/19 A2993 RMK AO2 T02330191

FAA Disclaimer: The data displayed is for advisory purposes only and is not to be used for flight planning or operations.